Archival Weather

Half Moon Bay

Half Moon Bay, California (KHAF)

Report from: Wednesday, December 6, 2023 8:55 AM PST
Current time: Saturday, February 24, 2024 8:02 AM PST

Current weather – Weather history – Daily summaries
Weather forecast

Present weatherMist
Temperature13.0°C (55.4°F)
Dew point13.0°C (55.4°F)
Winds 6 kts (3.1 m/s, 6.9 mph) Southeast (140°)
Visibility3960 ft. (1.2 km)
Clouds Ceiling: Overcast 300 ft. (91 m)
Altimeter30.10 in.Hg (1019 mB)
Precipitiation0.02 in. (1 mm)
Relative humidity100 %
Density altitude-234 ft. (-71 m)
Remarks Fully automated report
Automated weather observing station with precipitation discriminator
Flight conditions Low Instrument Meteorological Conditions
Raw dataKHAF 061655Z AUTO 14006KT 3/4SM BR OVC003 13/13 A3010 RMK AO2 P0002
An error has occurred. This application may no longer respond until reloaded. Reload 🗙